createdAt,value
2022-12-16T00:00:10.168Z,8.80
2022-12-16T00:02:37.346Z,8.10
2022-12-16T00:05:04.850Z,7.90
2022-12-16T00:07:31.681Z,7.72
2022-12-16T00:09:58.472Z,8.40
2022-12-16T00:12:25.984Z,7.88
2022-12-16T00:14:52.866Z,8.13
2022-12-16T00:17:21.938Z,8.32
2022-12-16T00:19:48.805Z,8.82
2022-12-16T00:22:15.617Z,8.63
2022-12-16T00:24:42.501Z,8.25
2022-12-16T00:27:09.527Z,9.07
2022-12-16T00:29:36.597Z,8.15
2022-12-16T00:32:03.837Z,7.55
2022-12-16T00:34:30.712Z,7.43
2022-12-16T00:36:57.493Z,8.77
2022-12-16T00:39:24.373Z,7.68
2022-12-16T00:41:51.990Z,8.35
2022-12-16T00:44:19.004Z,7.30
2022-12-16T00:46:45.877Z,8.57
2022-12-16T00:49:12.880Z,8.90
2022-12-16T00:51:39.726Z,9.55
2022-12-16T00:54:06.588Z,8.93
2022-12-16T00:56:33.497Z,9.05
2022-12-16T00:59:00.299Z,10.05
2022-12-16T01:01:27.447Z,9.23
2022-12-16T01:03:57.934Z,9.23
2022-12-16T01:06:25.008Z,8.43
2022-12-16T01:08:51.977Z,8.55
2022-12-16T01:11:20.733Z,8.65
2022-12-16T01:13:51.989Z,8.57
2022-12-16T01:16:19.761Z,8.43
2022-12-16T01:18:46.796Z,8.48
2022-12-16T01:21:15.756Z,9.05
2022-12-16T01:23:43.401Z,8.52
2022-12-16T01:26:17.865Z,8.30
2022-12-16T01:28:48.086Z,7.90
2022-12-16T01:31:18.337Z,9.20
2022-12-16T01:33:45.531Z,8.00
2022-12-16T01:36:12.408Z,8.38
2022-12-16T01:38:42.738Z,8.88
2022-12-16T01:41:11.927Z,8.40
2022-12-16T01:43:41.291Z,7.95
2022-12-16T01:46:23.752Z,8.35
2022-12-16T01:49:16.956Z,7.50
2022-12-16T01:51:52.090Z,7.50
2022-12-16T01:54:30.634Z,7.28
2022-12-16T01:57:06.713Z,7.47
2022-12-16T01:59:39.289Z,8.85
2022-12-16T02:02:06.705Z,8.80
2022-12-16T02:04:33.687Z,7.75
2022-12-16T02:07:01.439Z,8.70
2022-12-16T02:09:28.327Z,8.27
2022-12-16T02:12:30.354Z,8.35
2022-12-16T02:15:38.800Z,8.18
2022-12-16T02:18:31.213Z,8.10
2022-12-16T02:21:28.848Z,7.80
2022-12-16T02:24:17.337Z,8.02
2022-12-16T02:26:59.171Z,7.72
2022-12-16T02:29:54.627Z,7.85
2022-12-16T02:32:30.343Z,7.53
2022-12-16T02:35:40.146Z,7.95
2022-12-16T02:38:32.487Z,7.68
2022-12-16T02:41:06.728Z,8.57
2022-12-16T02:43:59.179Z,8.73
2022-12-16T02:46:30.163Z,8.32
2022-12-16T02:48:57.075Z,9.50
2022-12-16T02:51:27.191Z,10.95
2022-12-16T02:53:55.638Z,9.57
2022-12-16T02:57:04.967Z,8.48
2022-12-16T02:59:56.138Z,8.45
2022-12-16T03:02:30.730Z,8.77
2022-12-16T03:05:17.701Z,8.82
2022-12-16T03:07:48.256Z,9.70
2022-12-16T03:10:20.606Z,9.80
2022-12-16T03:12:47.464Z,10.20
2022-12-16T03:15:20.937Z,11.13
2022-12-16T03:17:49.784Z,9.48
2022-12-16T03:20:27.176Z,9.93
2022-12-16T03:22:58.995Z,10.60
2022-12-16T03:25:28.756Z,9.60
2022-12-16T03:28:25.612Z,10.20
2022-12-16T03:31:05.262Z,11.18
2022-12-16T03:33:42.755Z,11.85
2022-12-16T03:36:24.676Z,9.95
2022-12-16T03:38:52.823Z,11.75
2022-12-16T03:41:23.515Z,11.10
2022-12-16T03:43:51.455Z,11.93
2022-12-16T03:46:18.997Z,10.85
2022-12-16T03:48:51.526Z,10.85
2022-12-16T03:51:20.761Z,10.82
2022-12-16T03:53:47.698Z,10.75
2022-12-16T03:56:14.692Z,10.10
2022-12-16T03:58:41.796Z,10.50
2022-12-16T04:01:10.192Z,11.02
2022-12-16T04:03:38.457Z,10.73
2022-12-16T04:06:06.409Z,10.40
2022-12-16T04:08:33.305Z,10.32
2022-12-16T04:11:18.944Z,10.85
2022-12-16T04:14:04.386Z,10.18
2022-12-16T04:16:50.564Z,11.20
2022-12-16T04:19:48.824Z,12.02
2022-12-16T04:22:44.509Z,10.13
2022-12-16T04:25:18.783Z,11.52
2022-12-16T04:27:46.897Z,12.00
2022-12-16T04:30:19.967Z,13.98
2022-12-16T04:33:15.480Z,11.75
2022-12-16T04:36:00.914Z,13.65
2022-12-16T04:38:46.700Z,13.95
2022-12-16T04:41:32.396Z,12.90
2022-12-16T04:44:18.340Z,11.98
2022-12-16T04:47:04.256Z,13.90
2022-12-16T04:49:50.295Z,12.70
2022-12-16T04:52:36.875Z,14.70
2022-12-16T04:55:23.787Z,13.63
2022-12-16T04:58:14.996Z,12.90
2022-12-16T05:01:01.560Z,12.77
2022-12-16T05:03:47.782Z,12.13
2022-12-16T05:06:34.776Z,13.23
2022-12-16T05:09:20.669Z,14.15
2022-12-16T05:12:07.614Z,12.30
2022-12-16T05:14:53.633Z,13.75
2022-12-16T05:17:39.743Z,13.45
2022-12-16T05:20:26.242Z,13.23
2022-12-16T05:23:15.288Z,12.80
2022-12-16T05:26:01.401Z,13.43
2022-12-16T05:28:47.486Z,14.10
2022-12-16T05:31:33.022Z,13.57
2022-12-16T05:34:18.447Z,13.68
2022-12-16T05:37:03.808Z,13.88
2022-12-16T05:39:49.285Z,13.45
2022-12-16T05:42:34.534Z,13.27
2022-12-16T05:45:20.137Z,14.75
2022-12-16T05:48:08.702Z,13.57
2022-12-16T05:50:55.286Z,12.35
2022-12-16T05:53:41.945Z,12.40
2022-12-16T05:56:27.282Z,14.55
2022-12-16T05:59:12.909Z,12.80
2022-12-16T06:01:58.678Z,14.20
2022-12-16T06:04:44.032Z,12.63
2022-12-16T06:07:29.510Z,13.32
2022-12-16T06:10:14.990Z,13.43
2022-12-16T06:13:00.581Z,13.75
2022-12-16T06:15:46.003Z,14.90
2022-12-16T06:18:31.536Z,15.25
2022-12-16T06:21:17.043Z,15.50
2022-12-16T06:24:02.388Z,15.77
2022-12-16T06:26:47.887Z,15.70
2022-12-16T06:29:33.358Z,17.30
2022-12-16T06:32:19.089Z,16.45
2022-12-16T06:35:04.496Z,15.93
2022-12-16T06:37:49.912Z,16.02
2022-12-16T06:40:35.495Z,16.40
2022-12-16T06:43:20.936Z,17.00
2022-12-16T06:46:06.952Z,17.55
2022-12-16T06:48:52.183Z,16.48
2022-12-16T06:51:37.627Z,17.80
2022-12-16T06:54:23.399Z,17.35
2022-12-16T06:57:08.789Z,18.48
2022-12-16T06:59:54.328Z,18.80
2022-12-16T07:02:59.722Z,18.20
2022-12-16T07:05:45.000Z,18.25
2022-12-16T07:08:30.657Z,17.35
2022-12-16T07:11:17.393Z,17.85
2022-12-16T07:14:03.897Z,19.02
2022-12-16T07:16:49.708Z,18.67
2022-12-16T07:19:35.130Z,18.75
2022-12-16T07:22:25.182Z,17.80
2022-12-16T07:25:10.730Z,19.08
2022-12-16T07:27:56.197Z,20.90
2022-12-16T07:30:41.669Z,18.70
2022-12-16T07:33:27.222Z,21.27
2022-12-16T07:36:12.701Z,20.65
2022-12-16T07:38:58.372Z,20.67
2022-12-16T07:41:44.045Z,20.67
2022-12-16T07:44:29.478Z,19.92
2022-12-16T07:47:15.220Z,19.95
2022-12-16T07:50:00.766Z,20.02
2022-12-16T07:52:46.357Z,20.60
2022-12-16T07:55:31.988Z,20.67
2022-12-16T07:58:17.431Z,19.55
2022-12-16T08:01:08.939Z,20.50
2022-12-16T08:03:54.845Z,20.42
2022-12-16T08:06:41.760Z,20.80
2022-12-16T08:09:27.264Z,20.80
2022-12-16T08:12:12.948Z,19.25
2022-12-16T08:14:58.420Z,21.90
2022-12-16T08:17:43.999Z,21.48
2022-12-16T08:20:29.642Z,19.88
2022-12-16T08:23:15.286Z,21.25
2022-12-16T08:26:00.793Z,20.73
2022-12-16T08:28:46.169Z,19.90
2022-12-16T08:31:31.640Z,19.58
2022-12-16T08:34:17.078Z,19.88
2022-12-16T08:37:02.356Z,19.33
2022-12-16T08:39:59.161Z,22.33
2022-12-16T08:42:53.230Z,20.10
2022-12-16T08:45:39.300Z,19.02
2022-12-16T08:48:25.498Z,21.95
2022-12-16T08:51:10.950Z,20.05
2022-12-16T08:53:56.687Z,18.85
2022-12-16T08:56:42.331Z,20.17
2022-12-16T08:59:27.868Z,19.55
2022-12-16T09:02:13.662Z,19.50
2022-12-16T09:04:59.097Z,20.98
2022-12-16T09:07:44.568Z,19.60
2022-12-16T09:10:32.263Z,21.08
2022-12-16T09:13:32.231Z,21.73
2022-12-16T09:16:19.809Z,20.23
2022-12-16T09:19:05.961Z,20.85
2022-12-16T09:21:52.699Z,19.42
2022-12-16T09:24:40.299Z,20.55
2022-12-16T09:27:25.988Z,18.55
2022-12-16T09:30:11.564Z,20.05
2022-12-16T09:33:01.977Z,20.13
2022-12-16T09:35:47.771Z,20.50
2022-12-16T09:38:34.111Z,19.38
2022-12-16T09:41:45.872Z,20.85
2022-12-16T09:45:01.348Z,19.38
2022-12-16T09:48:21.986Z,20.35
2022-12-16T09:51:11.746Z,18.30
2022-12-16T09:53:59.352Z,20.40
2022-12-16T09:56:51.332Z,19.67
2022-12-16T09:59:49.485Z,19.20
2022-12-16T10:02:38.015Z,22.05
2022-12-16T10:05:46.379Z,21.25
2022-12-16T10:09:05.769Z,18.55
2022-12-16T10:12:17.511Z,17.17
2022-12-16T10:15:30.818Z,16.60
2022-12-16T10:18:23.597Z,15.95
2022-12-16T10:21:13.541Z,16.33
2022-12-16T10:24:20.673Z,16.25
2022-12-16T10:27:28.159Z,16.92
2022-12-16T10:30:14.060Z,16.08
2022-12-16T10:33:05.895Z,16.52
2022-12-16T10:36:06.100Z,17.08
2022-12-16T10:39:03.282Z,17.88
2022-12-16T10:41:55.031Z,17.73
2022-12-16T10:44:54.098Z,16.55
2022-12-16T10:47:41.548Z,17.75
2022-12-16T10:50:32.729Z,17.13
2022-12-16T10:53:23.268Z,17.50
2022-12-16T10:56:53.628Z,18.13
2022-12-16T10:59:39.275Z,17.23
2022-12-16T11:02:38.080Z,15.70
2022-12-16T11:05:54.105Z,17.95
2022-12-16T11:08:49.296Z,18.58
2022-12-16T11:11:44.384Z,19.60
2022-12-16T11:15:12.640Z,19.02
2022-12-16T11:17:56.728Z,18.35
2022-12-16T11:20:44.875Z,21.35
2022-12-16T11:23:42.999Z,18.70
2022-12-16T11:26:37.754Z,21.55
2022-12-16T11:29:38.506Z,20.60
2022-12-16T11:32:45.365Z,22.40
2022-12-16T11:35:37.025Z,23.67
2022-12-16T11:38:28.257Z,21.80
2022-12-16T11:41:14.616Z,21.95
2022-12-16T11:44:08.338Z,20.45
2022-12-16T11:46:54.012Z,20.15
2022-12-16T11:49:52.324Z,20.98
2022-12-16T11:52:41.379Z,22.50
2022-12-16T11:56:04.906Z,21.27
2022-12-16T11:59:08.704Z,19.77
2022-12-16T12:02:22.563Z,20.30
2022-12-16T12:05:09.349Z,19.98
2022-12-16T12:08:23.977Z,21.60
2022-12-16T12:11:42.758Z,21.10
2022-12-16T12:15:00.841Z,22.65
2022-12-16T12:18:12.036Z,20.80
2022-12-16T12:21:33.434Z,20.20
2022-12-16T12:24:45.136Z,21.10
2022-12-16T12:27:52.886Z,16.55
2022-12-16T12:30:41.343Z,18.98
2022-12-16T12:33:56.292Z,19.67
2022-12-16T12:37:03.351Z,19.75
2022-12-16T12:40:08.749Z,21.27
2022-12-16T12:43:06.581Z,19.50
2022-12-16T12:46:30.448Z,20.13
2022-12-16T12:49:50.243Z,20.73
2022-12-16T12:53:07.281Z,18.75
2022-12-16T12:56:01.318Z,17.95
2022-12-16T12:58:53.553Z,18.55
2022-12-16T13:01:47.011Z,19.85
2022-12-16T13:04:39.681Z,17.27
2022-12-16T13:07:26.754Z,17.50
2022-12-16T13:10:30.370Z,17.83
2022-12-16T13:13:34.043Z,16.30
2022-12-16T13:16:22.512Z,16.10
2022-12-16T13:20:03.783Z,16.10
2022-12-16T13:26:12.168Z,14.93
2022-12-16T13:29:01.085Z,15.75
2022-12-16T13:31:49.045Z,17.20
2022-12-16T13:34:34.456Z,16.70
2022-12-16T13:37:31.041Z,19.75
2022-12-16T13:40:40.142Z,19.67
2022-12-16T13:44:02.196Z,20.17
2022-12-16T13:47:10.102Z,20.60
2022-12-16T13:49:55.724Z,19.73
2022-12-16T13:52:58.410Z,20.95
2022-12-16T13:56:23.583Z,20.02
2022-12-16T13:59:23.003Z,18.80
2022-12-16T14:02:39.112Z,18.88
2022-12-16T14:05:38.737Z,19.70
2022-12-16T14:08:31.990Z,18.33
2022-12-16T14:11:22.253Z,18.75
2022-12-16T14:20:49.117Z,15.63
2022-12-16T14:23:58.244Z,15.48
2022-12-16T14:26:45.114Z,16.25
2022-12-16T14:29:44.720Z,14.30
2022-12-16T14:32:49.178Z,15.70
2022-12-16T14:35:44.995Z,16.23
2022-12-16T14:38:43.817Z,16.27
2022-12-16T14:41:49.619Z,14.45
2022-12-16T14:44:42.266Z,13.75
2022-12-16T14:47:49.140Z,15.90
2022-12-16T14:50:54.802Z,14.35
2022-12-16T14:53:50.050Z,16.60
2022-12-16T14:56:40.921Z,15.18
2022-12-16T15:02:29.098Z,15.23
2022-12-16T15:05:15.457Z,15.98
2022-12-16T15:08:00.991Z,15.25
2022-12-16T15:10:47.453Z,15.45
2022-12-16T15:13:37.746Z,16.50
2022-12-16T15:16:39.570Z,15.30
2022-12-16T15:19:25.425Z,18.45
2022-12-16T15:22:11.184Z,15.63
2022-12-16T15:24:57.813Z,17.05
2022-12-16T15:27:52.110Z,16.70
2022-12-16T15:31:01.634Z,18.10
2022-12-16T15:33:54.786Z,17.00
2022-12-16T15:36:42.991Z,17.00
2022-12-16T15:39:56.337Z,16.05
2022-12-16T15:42:49.085Z,15.85
2022-12-16T15:45:50.434Z,18.58
2022-12-16T15:48:51.795Z,16.83
2022-12-16T15:51:52.087Z,17.60
2022-12-16T15:54:42.920Z,15.48
2022-12-16T15:57:50.834Z,15.32
2022-12-16T16:00:49.152Z,13.63
2022-12-16T16:03:56.831Z,12.75
2022-12-16T16:06:45.096Z,13.27
2022-12-16T16:09:52.025Z,13.18
2022-12-16T16:12:40.321Z,12.50
2022-12-16T16:15:29.529Z,11.85
2022-12-16T16:18:21.973Z,12.77
2022-12-16T16:21:08.404Z,12.10
2022-12-16T16:23:54.023Z,12.85
2022-12-16T16:26:44.997Z,14.65
2022-12-16T16:29:30.846Z,13.02
2022-12-16T16:32:16.407Z,12.85
2022-12-16T16:35:02.106Z,15.02
2022-12-16T16:37:47.681Z,15.02
2022-12-16T16:40:56.578Z,15.85
2022-12-16T16:43:43.498Z,15.57
2022-12-16T16:46:56.869Z,14.32
2022-12-16T16:49:48.393Z,14.32
2022-12-16T16:52:38.920Z,14.95
2022-12-16T16:55:26.887Z,13.30
2022-12-16T16:58:12.577Z,13.40
2022-12-16T17:00:58.018Z,15.00
2022-12-16T17:03:44.576Z,14.35
2022-12-16T17:06:30.690Z,16.45
2022-12-16T17:09:16.127Z,14.13
2022-12-16T17:12:01.739Z,15.63
2022-12-16T17:14:47.272Z,15.50
2022-12-16T17:17:32.714Z,13.90
2022-12-16T17:20:18.393Z,15.77
2022-12-16T17:23:03.970Z,16.88
2022-12-16T17:25:49.591Z,14.98
2022-12-16T17:28:35.147Z,15.80
2022-12-16T17:31:20.522Z,13.40
2022-12-16T17:34:05.766Z,15.13
2022-12-16T17:36:51.262Z,14.70
2022-12-16T17:39:53.230Z,14.65
2022-12-16T17:42:44.810Z,14.85
2022-12-16T17:45:31.734Z,14.43
2022-12-16T17:48:17.308Z,14.30
2022-12-16T17:51:02.758Z,13.73
2022-12-16T17:53:54.545Z,14.18
2022-12-16T17:56:42.591Z,12.43
2022-12-16T17:59:28.752Z,13.15
2022-12-16T18:02:14.230Z,14.10
2022-12-16T18:04:59.667Z,15.13
2022-12-16T18:07:45.225Z,13.00
2022-12-16T18:10:30.748Z,14.25
2022-12-16T18:13:16.337Z,15.25
2022-12-16T18:16:01.799Z,13.45
2022-12-16T18:18:47.402Z,11.57
2022-12-16T18:21:33.125Z,14.30
2022-12-16T18:24:18.782Z,12.98
2022-12-16T18:27:04.269Z,13.63
2022-12-16T18:29:49.845Z,12.60
2022-12-16T18:32:35.595Z,12.95
2022-12-16T18:35:21.740Z,13.88
2022-12-16T18:38:07.937Z,14.65
2022-12-16T18:40:54.796Z,15.15
2022-12-16T18:43:39.998Z,14.25
2022-12-16T18:46:25.633Z,14.18
2022-12-16T18:49:10.985Z,16.27
2022-12-16T18:51:56.504Z,14.27
2022-12-16T18:54:41.954Z,15.38
2022-12-16T18:57:27.560Z,16.48
2022-12-16T19:00:13.195Z,15.55
2022-12-16T19:02:59.039Z,12.75
2022-12-16T19:05:44.733Z,13.23
2022-12-16T19:08:30.474Z,12.75
2022-12-16T19:11:17.508Z,12.40
2022-12-16T19:14:03.059Z,12.65
2022-12-16T19:16:48.855Z,13.80
2022-12-16T19:19:48.043Z,15.25
2022-12-16T19:22:33.692Z,13.93
2022-12-16T19:25:19.192Z,14.23
2022-12-16T19:28:04.893Z,15.02
2022-12-16T19:30:50.537Z,14.65
2022-12-16T19:33:36.092Z,14.00
2022-12-16T19:36:21.436Z,13.43
2022-12-16T19:39:06.949Z,15.75
2022-12-16T19:41:52.399Z,14.48
2022-12-16T19:44:39.329Z,13.32
2022-12-16T19:47:25.402Z,13.88
2022-12-16T19:50:10.965Z,13.00
2022-12-16T19:52:56.583Z,13.25
2022-12-16T19:55:42.192Z,14.50
2022-12-16T19:58:27.851Z,15.88
2022-12-16T20:01:13.347Z,14.98
2022-12-16T20:03:58.680Z,16.02
2022-12-16T20:06:44.388Z,15.85
2022-12-16T20:09:30.054Z,17.13
2022-12-16T20:12:15.569Z,18.10
2022-12-16T20:15:00.835Z,15.57
2022-12-16T20:17:46.433Z,16.70
2022-12-16T20:20:32.097Z,16.73
2022-12-16T20:23:17.697Z,14.57
2022-12-16T20:26:03.721Z,15.15
2022-12-16T20:28:49.313Z,15.45
2022-12-16T20:31:34.523Z,14.02
2022-12-16T20:34:19.935Z,15.80
2022-12-16T20:37:05.819Z,16.02
2022-12-16T20:39:56.707Z,17.88
2022-12-16T20:42:44.547Z,17.20
2022-12-16T20:45:30.131Z,18.27
2022-12-16T20:48:15.552Z,17.83
2022-12-16T20:51:01.196Z,17.80
2022-12-16T20:53:47.099Z,21.40
2022-12-16T20:56:32.707Z,16.67
2022-12-16T20:59:18.332Z,18.60
2022-12-16T21:05:09.195Z,19.17
2022-12-16T21:07:55.221Z,18.25
2022-12-16T21:10:42.802Z,17.05
2022-12-16T21:13:34.919Z,18.38
2022-12-16T21:16:24.012Z,16.05
2022-12-16T21:19:10.429Z,16.85
2022-12-16T21:21:56.606Z,17.25
2022-12-16T21:24:42.265Z,15.55
2022-12-16T21:27:28.144Z,17.48
2022-12-16T21:30:13.868Z,15.65
2022-12-16T21:32:59.944Z,14.65
2022-12-16T21:35:45.435Z,18.10
2022-12-16T21:38:32.021Z,16.25
2022-12-16T21:41:17.788Z,15.90
2022-12-16T21:44:03.003Z,17.55
2022-12-16T21:46:48.706Z,17.48
2022-12-16T21:49:33.980Z,17.75
2022-12-16T21:52:19.402Z,17.35
2022-12-16T21:55:04.821Z,17.40
2022-12-16T21:57:50.331Z,18.67
2022-12-16T22:00:36.195Z,17.45
2022-12-16T22:03:21.714Z,17.25
2022-12-16T22:06:07.085Z,17.63
2022-12-16T22:08:52.907Z,16.52
2022-12-16T22:11:41.373Z,16.02
2022-12-16T22:14:26.966Z,17.73
2022-12-16T22:17:12.664Z,15.13
2022-12-16T22:19:57.941Z,15.88
2022-12-16T22:22:43.511Z,16.73
2022-12-16T22:25:29.068Z,15.05
2022-12-16T22:28:14.723Z,15.35
2022-12-16T22:31:00.275Z,17.23
2022-12-16T22:33:45.429Z,16.65
2022-12-16T22:36:33.040Z,16.75
2022-12-16T22:39:18.605Z,17.48
2022-12-16T22:42:04.033Z,17.75
2022-12-16T22:44:49.653Z,16.15
2022-12-16T22:47:35.208Z,17.08
2022-12-16T22:50:20.799Z,18.20
2022-12-16T22:53:06.262Z,19.10
2022-12-16T22:55:51.782Z,18.02
2022-12-16T22:58:37.933Z,16.70
2022-12-16T23:01:27.048Z,16.85
2022-12-16T23:04:15.185Z,17.33
2022-12-16T23:07:00.416Z,17.95
2022-12-16T23:09:46.048Z,16.70
2022-12-16T23:12:31.584Z,15.60
2022-12-16T23:15:17.284Z,15.85
2022-12-16T23:18:02.575Z,15.80
2022-12-16T23:20:48.174Z,16.25
2022-12-16T23:23:33.612Z,14.65
2022-12-16T23:26:21.128Z,14.77
2022-12-16T23:29:11.833Z,14.60
2022-12-16T23:31:58.007Z,16.25
2022-12-16T23:34:45.953Z,14.27
2022-12-16T23:37:32.948Z,14.52
2022-12-16T23:40:18.422Z,14.00
2022-12-16T23:43:05.824Z,14.27
2022-12-16T23:45:51.801Z,15.77
2022-12-16T23:48:37.622Z,14.48
2022-12-16T23:51:23.011Z,14.98
2022-12-16T23:54:08.575Z,12.80
2022-12-16T23:56:54.119Z,12.63
2022-12-16T23:59:41.710Z,12.65
